Aérodrome :
LOGIN :

S'inscrire | Disclaimer

   EN    FR    IT 

 










Légende :    VFR   VFR Marginal   IFR   IFR Intensif   IFR Très Intensif
Visi : 
Plafond : 
>= 8 km
>= 3000ft
5 à 8 km
1000 à 3000 ft
1500m à 5 km
500 à 1000 ft
800 à 1500m
200 à 500 ft
< 800m
< 200 ft
Symboles :   Orages  Brouillard  Fortes neiges  Fortes précipitations  Vent > 20 kt
SIGMETs :   Divers  Orages  Givrage  Turbulence  Onde Orograph.  Cendres Volcan.






- Altitude de l'aérodrome : 7 ft
- Code IATA : POW


LJPZ - Portoroz

DERNIER METAR :
  • 221600Z 09003KT CAVOK 07/02 Q1031

METARs EXPIRÉS :
  • 221530Z VRB01KT CAVOK 09/03 Q1031
  • 221500Z 22003KT 170V240 CAVOK 09/04 Q1031
  • 221430Z VRB02KT CAVOK 09/04 Q1031
  • 221400Z 32004KT CAVOK 09/04 Q1032
  • 221330Z 28004KT CAVOK 09/04 Q1032

TAF TAF LJPZ
Valide du 22 à 15h jusqu'au 23 à 00h UTC


221400Z 2215/2224 29005KT CAVOK
TEMPO 2215/2224 SCT020
TEMPO 2215/2217 24005KT
BECMG 2217/2219 12005KT



MET'MAP, la Météo Aéronautique d'un coup d'oeil ! - Copyright ORBIFLY Décembre 2007 - Disclaimer

ORBIFLY MET'MAP TEAM :

Programmation & Développement : Alexandra Zaïnal
Sur une idée originale de : Baudouin d'Aumeries
Assistance à la programmation : Marc-Olivier Méhu
Soutien technique & logistique : Manuel Goepfert

Contact : metmap@orbifly.com




SOURCES & CREDITS :

   NOAA